Overview Statistics Trail Chart Weather Telemetry Raw packets
 

This is the latest recevied weather packets stored in our database for station/object KB7K. If no packets are shown the sender has not sent any weather packets the latest 10 day(s).

<< 1 2 3 4 5 >>
Time Temp. Humidity Pressure Rain* Wind** Luminosity Snow
1788570598 26.67° C 19% 976.8 hPa 0 mm - - -
1788568592 27.78° C 19% 976.8 hPa 0 mm - - -
1788566586 28.89° C 18% 976.7 hPa 0 mm - - -
1788565581 29.44° C 18% 976.6 hPa 0 mm - - -
1788565510 29.44° C 18% 976.6 hPa 0 mm - - -
1788564128 29.44° C 18% 976.5 hPa 0 mm - - -
1788563125 30° C 18% 976.6 hPa 0 mm - - -
1788562124 30° C 18% 976.7 hPa 0 mm - - -
1788559112 30.56° C 17% 976.9 hPa 0 mm - - -
1788556536 31.11° C 18% 977.2 hPa 0 mm - - -
1788553526 30° C 19% 977.9 hPa 0 mm - - -
1788553319 30° C 19% 977.9 hPa 0 mm - - -
1788552017 30° C 19% 978 hPa 0 mm - - -
1788547001 27.22° C 22% 979 hPa 0 mm - - -
1788546936 27.22° C 22% 979.1 hPa 0 mm - - -
1788545953 26.67° C 23% 979.2 hPa 0 mm - - -
1788543948 25.56° C 26% 979.6 hPa 0 mm - - -
1788541941 23.89° C 28% 979.7 hPa 0 mm - - -
1788540939 22.78° C 30% 979.7 hPa 0 mm - - -
1788538933 21.11° C 33% 979.7 hPa 0 mm - - -
1788537928 20.56° C 35% 979.6 hPa 0 mm - - -
1788536927 19.44° C 36% 979.7 hPa 0 mm - - -
1788534921 17.78° C 39% 979.6 hPa 0 mm - - -
1788533917 16.67° C 38% 979.6 hPa 0 mm - - -
1788532915 16.11° C 36% 979.4 hPa 0 mm - - -

* Rain since midnight (hover to see other rain measurements)
** Current wind speed in m/s (hover to see current wind gust speed)